Time;durP1;ratioP1;P1;durP2;ratioP2;P2;SDS_P1;SDS_P2;PMS_P1;PMS_P2;Temp;Humidity;BMP_temperature;BMP_pressure;BME280_temperature;BME280_humidity;BME280_pressure;Samples;Min_cycle;Max_cycle;Signal;HPM_P1;HPM_P2
2021/10/07 00:00:18;;;;;;;10.60;6.95;;;;;;;13.14;94.76;100790.48;1768336;80;21327;-90
2021/10/07 00:02:44;;;;;;;8.88;7.40;;;;;;;13.15;94.72;100794.81;1764929;80;21042;-90
2021/10/07 00:05:11;;;;;;;8.28;7.08;;;;;;;13.17;94.75;100794.72;1760176;80;20997;-90
2021/10/07 00:07:38;;;;;;;10.18;7.55;;;;;;;13.17;94.83;100786.77;1771653;80;20984;-90
2021/10/07 00:10:06;;;;;;;9.65;7.92;;;;;;;13.18;94.79;100785.31;1768516;80;21040;-90
2021/10/07 00:12:32;;;;;;;11.18;7.85;;;;;;;13.20;94.87;100790.52;1769981;80;21526;-90
2021/10/07 00:14:58;;;;;;;10.63;6.90;;;;;;;13.20;94.81;100789.19;1771856;80;20937;-91
2021/10/07 00:17:24;;;;;;;10.40;8.30;;;;;;;13.20;94.92;100786.05;1772641;80;20988;-90
2021/10/07 00:19:50;;;;;;;9.20;7.12;;;;;;;13.22;94.91;100784.59;1759485;80;20966;-90
2021/10/07 00:22:16;;;;;;;9.58;7.95;;;;;;;13.20;94.94;100783.89;1760877;80;21522;-90
2021/10/07 00:24:42;;;;;;;9.88;7.33;;;;;;;13.21;94.97;100786.89;1767740;80;20965;-91
2021/10/07 00:27:08;;;;;;;7.92;6.65;;;;;;;13.21;94.98;100785.08;1770463;80;20965;-90
2021/10/07 00:29:40;;;;;;;8.00;5.90;;;;;;;13.18;94.71;100782.66;1767916;80;20969;-90
2021/10/07 00:32:25;;;;;;;8.40;6.30;;;;;;;13.18;94.67;100781.34;1770764;80;21032;-91
2021/10/07 00:40:08;;;;;;;7.90;5.37;;;;;;;13.18;94.50;100781.83;1761721;80;21021;-90
2021/10/07 00:42:34;;;;;;;10.98;5.80;;;;;;;13.17;94.58;100786.77;1774740;80;20959;-90
2021/10/07 00:45:00;;;;;;;9.05;6.33;;;;;;;13.15;94.50;100789.03;1769308;80;20989;-90
2021/10/07 00:47:26;;;;;;;10.28;5.30;;;;;;;13.13;94.50;100788.81;1771572;80;20992;-90
2021/10/07 00:49:53;;;;;;;6.97;5.70;;;;;;;13.13;94.58;100790.13;1771815;80;20950;-90
2021/10/07 00:52:20;;;;;;;8.38;6.03;;;;;;;13.12;94.46;100791.91;1772136;80;21152;-92
2021/10/07 00:54:50;;;;;;;5.47;4.85;;;;;;;13.13;94.56;100791.46;1767018;80;21307;-91
2021/10/07 00:57:18;;;;;;;8.53;5.62;;;;;;;13.14;94.64;100791.81;1765633;80;21020;-90
2021/10/07 00:59:49;;;;;;;8.50;5.58;;;;;;;13.14;94.66;100789.16;1766992;80;21017;-90
2021/10/07 01:02:15;;;;;;;10.68;8.30;;;;;;;13.15;94.55;100791.68;1761869;80;20969;-90
2021/10/07 01:04:42;;;;;;;11.40;9.43;;;;;;;13.15;94.48;100787.70;1754478;80;21476;-90
2021/10/07 01:07:09;;;;;;;9.63;7.62;;;;;;;13.17;94.58;100783.63;1748944;80;21053;-90
2021/10/07 01:09:35;;;;;;;12.15;9.85;;;;;;;13.18;94.60;100783.14;1777901;80;20980;-91
2021/10/07 01:12:04;;;;;;;20.23;18.12;;;;;;;13.17;94.46;100784.95;1765832;80;21540;-91
2021/10/07 01:14:51;;;;;;;15.68;12.50;;;;;;;13.17;94.41;100789.42;1759352;80;20988;-91
2021/10/07 01:17:18;;;;;;;13.60;11.48;;;;;;;13.16;94.46;100784.58;1778677;80;20977;-90
2021/10/07 01:19:46;;;;;;;12.95;7.87;;;;;;;13.14;94.40;100779.89;1771850;80;20995;-90
2021/10/07 01:22:14;;;;;;;9.13;6.45;;;;;;;13.13;94.16;100784.84;1771301;80;21015;-91
2021/10/07 01:24:41;;;;;;;12.93;7.20;;;;;;;13.11;94.24;100788.07;1769353;80;21020;-90
2021/10/07 01:27:08;;;;;;;6.33;5.60;;;;;;;13.11;94.24;100792.88;1773408;80;21030;-91
2021/10/07 01:29:35;;;;;;;9.93;6.37;;;;;;;13.10;94.21;100789.04;1758973;80;20983;-90
2021/10/07 01:32:04;;;;;;;8.88;6.35;;;;;;;13.08;94.25;100793.11;1769755;80;21016;-90
2021/10/07 01:34:31;;;;;;;8.33;6.03;;;;;;;13.09;94.42;100791.30;1776726;80;21016;-90
2021/10/07 01:36:58;;;;;;;9.43;5.70;;;;;;;13.08;94.45;100794.44;1768282;80;20973;-90
2021/10/07 01:39:25;;;;;;;9.40;6.50;;;;;;;13.10;94.36;100790.37;1771303;80;21448;-90
2021/10/07 01:41:51;;;;;;;12.03;7.30;;;;;;;13.09;94.31;100793.95;1775961;80;20993;-90
2021/10/07 01:44:20;;;;;;;12.70;8.25;;;;;;;13.10;94.48;100798.31;1765939;80;21000;-90
2021/10/07 01:46:46;;;;;;;10.05;7.05;;;;;;;13.10;94.43;100806.27;1760953;80;21286;-90
2021/10/07 01:49:12;;;;;;;9.18;5.50;;;;;;;13.09;94.26;100806.72;1768782;80;21009;-90
2021/10/07 01:51:39;;;;;;;8.45;5.87;;;;;;;13.07;94.04;100803.36;1757589;81;20994;-91
2021/10/07 01:54:06;;;;;;;8.40;6.58;;;;;;;13.06;94.10;100805.65;1769631;80;21003;-90
2021/10/07 01:56:32;;;;;;;10.28;6.30;;;;;;;13.04;94.12;100804.91;1769911;80;20988;-90
2021/10/07 01:58:59;;;;;;;7.78;6.12;;;;;;;13.03;94.07;100805.01;1781780;80;21471;-91
2021/10/07 02:01:26;;;;;;;9.53;5.17;;;;;;;13.00;93.88;100807.44;1762056;80;21041;-90
2021/10/07 02:03:52;;;;;;;8.48;5.70;;;;;;;12.98;93.77;100804.53;1763947;80;20996;-90
2021/10/07 02:06:18;;;;;;;8.80;6.00;;;;;;;12.96;93.62;100804.62;1757710;80;20987;-90
2021/10/07 02:08:45;;;;;;;10.08;6.70;;;;;;;12.94;93.59;100811.86;1760986;80;20957;-90
2021/10/07 02:11:12;;;;;;;9.88;6.67;;;;;;;12.93;93.75;100815.45;1767666;80;20997;-92
2021/10/07 02:13:38;;;;;;;11.22;6.20;;;;;;;12.92;93.73;100816.42;1756425;80;21562;-92
2021/10/07 02:16:05;;;;;;;10.53;6.45;;;;;;;12.91;93.78;100818.71;1774476;80;20958;-91
2021/10/07 02:18:31;;;;;;;10.60;6.55;;;;;;;12.78;93.57;100800.72;1775569;80;20965;-91
2021/10/07 02:20:58;;;;;;;13.20;8.38;;;;;;;12.89;93.64;100821.94;1763295;80;21456;-91
2021/10/07 02:23:24;;;;;;;15.63;9.80;;;;;;;12.88;93.49;100822.91;1758187;80;21005;-91
2021/10/07 02:25:50;;;;;;;11.78;8.13;;;;;;;12.86;93.41;100830.95;1773909;80;20978;-90
2021/10/07 02:28:16;;;;;;;15.80;8.60;;;;;;;12.87;93.54;100831.83;1753685;80;21016;-90
2021/10/07 02:30:43;;;;;;;9.33;6.87;;;;;;;12.87;93.62;100830.50;1747218;80;20962;-90
2021/10/07 02:33:10;;;;;;;9.65;7.20;;;;;;;12.87;93.79;100834.47;1779074;80;21005;-91
2021/10/07 02:35:36;;;;;;;14.13;8.70;;;;;;;12.88;93.56;100830.86;1774772;80;21024;-90
2021/10/07 02:38:04;;;;;;;11.55;8.10;;;;;;;12.87;93.65;100825.20;1762055;80;21049;-91
2021/10/07 02:40:31;;;;;;;11.55;7.17;;;;;;;12.86;93.62;100829.63;1735693;83;21004;-90
2021/10/07 02:42:58;;;;;;;12.53;8.78;;;;;;;12.84;93.46;100836.86;1735824;83;21037;-91
2021/10/07 02:45:26;;;;;;;13.28;9.28;;;;;;;12.83;93.41;100835.63;1757485;80;21001;-91
2021/10/07 02:47:52;;;;;;;15.32;9.25;;;;;;;12.83;93.43;100843.58;1784713;80;21005;-91
2021/10/07 02:50:21;;;;;;;18.07;12.07;;;;;;;12.81;93.34;100850.33;1785211;80;21013;-91
2021/10/07 02:52:47;;;;;;;15.48;11.12;;;;;;;12.82;93.58;100845.88;1761902;80;21523;-91
2021/10/07 02:55:14;;;;;;;17.25;11.95;;;;;;;12.82;93.56;100850.69;1736027;82;20985;-91
2021/10/07 02:57:41;;;;;;;20.23;13.53;;;;;;;12.84;93.63;100847.94;1735609;83;20982;-91
2021/10/07 03:00:10;;;;;;;12.85;8.58;;;;;;;12.85;93.72;100846.97;1742097;80;21527;-91
2021/10/07 03:02:37;;;;;;;10.95;8.73;;;;;;;12.83;93.54;100856.37;1784669;80;21004;-92
2021/10/07 03:05:04;;;;;;;13.00;9.60;;;;;;;12.83;93.41;100855.50;1784827;80;21519;-90
2021/10/07 03:07:30;;;;;;;12.78;8.48;;;;;;;12.83;93.51;100859.02;1738238;80;20992;-90
2021/10/07 03:09:56;;;;;;;11.22;7.83;;;;;;;12.83;93.56;100852.39;1735654;82;21005;-91
2021/10/07 03:12:22;;;;;;;24.95;15.72;;;;;;;12.83;93.61;100857.69;1735546;83;21021;-90
2021/10/07 03:14:48;;;;;;;21.65;11.55;;;;;;;12.84;93.60;100858.53;1735649;83;21068;-91
2021/10/07 03:17:16;;;;;;;43.68;20.35;;;;;;;12.81;93.47;100861.41;1746697;80;21459;-91
2021/10/07 03:19:43;;;;;;;34.73;17.50;;;;;;;12.81;93.58;100864.05;1758769;81;21029;-91
2021/10/07 03:22:09;;;;;;;36.45;18.62;;;;;;;12.79;93.56;100870.77;1742347;81;21432;-90
2021/10/07 03:24:36;;;;;;;26.02;13.95;;;;;;;12.77;93.57;100869.22;1735767;82;20993;-91
2021/10/07 03:27:03;;;;;;;22.05;11.70;;;;;;;12.77;93.60;100874.52;1716569;83;20985;-91
2021/10/07 03:29:30;;;;;;;13.18;9.83;;;;;;;12.78;93.60;100877.52;1735517;82;21025;-90
2021/10/07 03:31:57;;;;;;;11.30;8.50;;;;;;;12.76;93.60;100882.91;1739171;80;20996;-90
2021/10/07 03:34:23;;;;;;;13.70;9.88;;;;;;;12.76;93.66;100880.26;1753957;81;21567;-91
2021/10/07 03:36:49;;;;;;;16.20;10.70;;;;;;;12.76;93.66;100878.94;1755930;80;21096;-91
2021/10/07 03:39:16;;;;;;;11.97;8.73;;;;;;;12.76;93.70;100887.36;1781961;80;20984;-91
2021/10/07 03:41:42;;;;;;;11.57;7.87;;;;;;;12.76;93.69;100888.69;1736545;80;21279;-91
2021/10/07 03:44:08;;;;;;;13.20;8.18;;;;;;;12.73;93.47;100883.12;1784808;80;21471;-91
2021/10/07 03:46:34;;;;;;;10.38;7.85;;;;;;;12.70;93.58;100887.35;1769209;80;21456;-92
2021/10/07 03:49:00;;;;;;;9.90;6.80;;;;;;;12.70;93.56;100891.78;1759503;80;21046;-90
2021/10/07 03:51:26;;;;;;;9.63;6.72;;;;;;;12.68;93.70;100892.74;1760803;80;20977;-91
2021/10/07 03:53:52;;;;;;;10.20;7.55;;;;;;;12.67;93.62;100901.66;1735490;83;21339;-91
2021/10/07 03:56:18;;;;;;;7.47;6.53;;;;;;;12.68;93.69;100903.81;1735577;82;21020;-92
2021/10/07 03:58:45;;;;;;;10.78;7.17;;;;;;;12.69;93.69;100905.50;1735762;80;21033;-91
2021/10/07 04:01:11;;;;;;;10.53;8.00;;;;;;;12.69;93.60;100913.44;1739106;80;20959;-91
2021/10/07 04:03:37;;;;;;;10.48;8.48;;;;;;;12.71;93.79;100916.00;1738874;80;20977;-91
2021/10/07 04:06:03;;;;;;;10.48;8.40;;;;;;;12.70;93.77;100912.95;1754060;81;20989;-90
2021/10/07 04:08:29;;;;;;;14.33;10.10;;;;;;;12.71;93.78;100918.64;1753802;81;21479;-91
2021/10/07 04:10:55;;;;;;;13.80;11.22;;;;;;;12.71;93.85;100918.64;1776403;80;20980;-90
2021/10/07 04:13:24;;;;;;;13.35;11.25;;;;;;;12.71;93.87;100921.29;1784776;80;21024;-90
2021/10/07 04:15:51;;;;;;;14.23;11.08;;;;;;;12.69;93.98;100925.36;1784825;80;21029;-92
2021/10/07 04:18:19;;;;;;;17.15;13.65;;;;;;;12.68;93.91;100924.52;1784684;80;21024;-91
2021/10/07 04:20:48;;;;;;;14.83;11.97;;;;;;;12.67;94.05;100927.29;1785053;80;20989;-91
2021/10/07 04:23:16;;;;;;;16.90;12.35;;;;;;;12.70;94.12;100927.52;1753937;82;21479;-89
2021/10/07 04:25:42;;;;;;;21.48;12.43;;;;;;;12.70;94.27;100929.72;1753995;81;21048;-91
2021/10/07 04:28:09;;;;;;;15.75;13.10;;;;;;;12.70;94.42;100930.17;1754730;81;20988;-93
2021/10/07 04:30:37;;;;;;;15.08;13.03;;;;;;;12.70;94.37;100932.81;1746772;80;20938;-91
2021/10/07 04:33:05;;;;;;;16.25;12.50;;;;;;;12.70;94.48;100928.84;1757567;80;21030;-91
2021/10/07 04:35:32;;;;;;;20.57;13.58;;;;;;;12.70;94.39;100930.17;1760754;80;20978;-92
2021/10/07 04:37:58;;;;;;;18.95;12.13;;;;;;;12.72;94.33;100936.22;1754074;82;21546;-92
2021/10/07 04:40:26;;;;;;;15.30;12.93;;;;;;;12.72;94.47;100929.11;1754083;82;21041;-92
2021/10/07 04:42:52;;;;;;;18.57;13.40;;;;;;;12.73;94.37;100931.28;1754058;82;21001;-91
2021/10/07 04:45:18;;;;;;;20.20;13.60;;;;;;;12.74;94.47;100931.66;1754183;82;21053;-91
2021/10/07 04:47:44;;;;;;;18.35;12.85;;;;;;;12.75;94.45;100934.67;1754036;82;21389;-92
2021/10/07 04:50:11;;;;;;;19.27;14.43;;;;;;;12.75;94.41;100936.84;1754138;81;20981;-92
2021/10/07 04:52:37;;;;;;;19.25;13.03;;;;;;;12.74;94.41;100938.28;1754021;81;21029;-92
2021/10/07 04:55:05;;;;;;;16.65;13.28;;;;;;;12.74;94.46;100944.42;1754207;82;21858;-92
2021/10/07 04:57:33;;;;;;;18.27;13.53;;;;;;;12.75;94.46;100944.78;1753699;82;21065;-92
2021/10/07 04:59:59;;;;;;;17.60;12.80;;;;;;;12.77;94.30;100946.02;1754478;81;20993;-92
2021/10/07 05:02:25;;;;;;;16.20;13.15;;;;;;;12.79;94.44;100953.34;1754096;82;21519;-92
2021/10/07 05:04:51;;;;;;;16.82;12.35;;;;;;;12.76;94.53;100954.41;1754152;81;20989;-93
2021/10/07 05:07:17;;;;;;;17.82;13.05;;;;;;;12.76;94.52;100951.76;1754122;82;21560;-92
2021/10/07 05:09:43;;;;;;;15.83;13.48;;;;;;;12.76;94.53;100949.11;1754209;82;20998;-92
2021/10/07 05:12:09;;;;;;;17.12;13.88;;;;;;;12.76;94.56;100955.73;1754030;81;20946;-93
2021/10/07 05:14:36;;;;;;;19.98;15.08;;;;;;;12.75;94.58;100955.86;1754277;82;21330;-92
2021/10/07 05:17:03;;;;;;;20.97;15.18;;;;;;;12.74;94.69;100951.53;1754076;82;21475;-93
2021/10/07 05:19:29;;;;;;;22.52;15.23;;;;;;;12.75;94.55;100950.56;1754024;82;21033;-93
2021/10/07 05:21:55;;;;;;;19.45;14.28;;;;;;;12.74;94.72;100951.53;1754103;82;20973;-92
2021/10/07 05:24:21;;;;;;;22.73;15.30;;;;;;;12.75;94.86;100956.70;1754270;82;21012;-92
2021/10/07 05:26:47;;;;;;;19.50;16.20;;;;;;;12.75;94.89;100957.18;1753991;82;21005;-92
2021/10/07 05:29:13;;;;;;;30.17;17.65;;;;;;;12.76;94.90;100960.19;1726843;82;21520;-92
2021/10/07 05:31:39;;;;;;;20.17;15.58;;;;;;;12.76;94.91;100959.70;1754137;81;21009;-92
2021/10/07 05:34:05;;;;;;;23.67;16.10;;;;;;;12.77;94.88;100962.74;1754136;82;21495;-92
2021/10/07 05:36:31;;;;;;;23.50;17.02;;;;;;;12.79;95.14;100959.97;1754134;81;20962;-92
2021/10/07 05:38:58;;;;;;;24.27;17.00;;;;;;;12.79;95.27;100958.16;1754056;82;21049;-94
2021/10/07 05:41:24;;;;;;;23.05;16.55;;;;;;;12.80;95.25;100965.63;1753925;82;21070;-92
2021/10/07 05:43:50;;;;;;;22.73;15.90;;;;;;;12.78;95.12;100968.87;1754024;81;21008;-92
2021/10/07 05:46:16;;;;;;;28.27;16.07;;;;;;;12.78;95.31;100975.02;1754039;81;21020;-92
2021/10/07 05:48:42;;;;;;;20.95;15.25;;;;;;;12.78;95.43;100977.66;1754050;81;21036;-92
2021/10/07 05:51:08;;;;;;;25.70;16.05;;;;;;;12.80;95.25;100979.73;1754140;82;21033;-91
2021/10/07 05:53:34;;;;;;;23.25;16.60;;;;;;;12.82;95.41;100983.59;1753978;82;20989;-92
2021/10/07 05:56:00;;;;;;;21.07;15.25;;;;;;;12.83;95.54;100989.24;1754202;82;20981;-92
2021/10/07 05:58:27;;;;;;;22.22;16.45;;;;;;;12.84;95.48;100990.95;1754023;82;21008;-92
2021/10/07 06:00:53;;;;;;;22.50;15.60;;;;;;;12.85;95.53;100987.34;1753993;81;21049;-91
2021/10/07 06:03:19;;;;;;;20.35;15.93;;;;;;;12.85;95.40;100987.34;1753766;81;21060;-92
2021/10/07 06:05:46;;;;;;;21.65;15.23;;;;;;;12.86;95.51;100991.67;1754059;81;20977;-92
2021/10/07 06:08:12;;;;;;;25.05;16.57;;;;;;;12.87;95.51;100992.06;1753934;82;21029;-92
2021/10/07 06:10:38;;;;;;;23.30;15.65;;;;;;;12.89;95.65;100994.11;1754182;81;21008;-91
2021/10/07 06:13:09;;;;;;;21.75;16.40;;;;;;;12.89;95.57;101003.37;1753964;82;21487;-92
2021/10/07 06:15:35;;;;;;;20.32;17.48;;;;;;;12.88;95.68;101002.53;1753863;82;21041;-92
2021/10/07 06:18:01;;;;;;;19.52;15.78;;;;;;;12.89;95.73;101006.86;1753884;81;20973;-93
2021/10/07 06:22:54;;;;;;;20.85;16.35;;;;;;;12.92;95.75;101007.13;1753910;81;21016;-93
2021/10/07 06:25:20;;;;;;;22.65;17.70;;;;;;;12.94;95.78;101014.98;1754190;81;20981;-92
2021/10/07 06:27:49;;;;;;;21.33;17.35;;;;;;;12.94;95.83;101013.17;1754103;82;21040;-93
2021/10/07 06:30:15;;;;;;;24.55;18.35;;;;;;;12.95;95.98;101013.53;1753718;82;21056;-90
2021/10/07 06:32:43;;;;;;;21.77;16.62;;;;;;;12.97;95.90;101016.94;1753879;81;21017;-93
2021/10/07 06:35:10;;;;;;;27.55;19.02;;;;;;;12.98;95.90;101021.27;1753947;81;21097;-93
2021/10/07 06:37:36;;;;;;;26.95;18.73;;;;;;;12.99;95.81;101016.81;1753920;81;21483;-92
2021/10/07 06:40:05;;;;;;;23.67;18.25;;;;;;;13.01;95.94;101024.18;1754459;81;20986;-92
2021/10/07 06:42:31;;;;;;;29.07;19.62;;;;;;;13.02;95.97;101032.00;1726811;82;21016;-92
2021/10/07 06:44:57;;;;;;;25.75;19.52;;;;;;;13.03;96.03;101027.55;1754165;82;21080;-94
2021/10/07 06:47:25;;;;;;;26.95;19.17;;;;;;;13.05;96.08;101026.97;1754063;81;21029;-93
2021/10/07 06:49:51;;;;;;;27.37;20.62;;;;;;;13.07;96.22;101028.56;1753744;82;21511;-93
2021/10/07 06:52:17;;;;;;;28.45;21.35;;;;;;;13.09;96.25;101024.45;1753929;82;20977;-91
2021/10/07 06:54:43;;;;;;;29.65;20.90;;;;;;;13.11;96.24;101027.86;1754279;81;21534;-92
2021/10/07 06:57:09;;;;;;;29.55;20.77;;;;;;;13.13;96.39;101031.25;1754058;81;21048;-91
2021/10/07 06:59:35;;;;;;;29.32;21.55;;;;;;;13.13;96.31;101032.09;1754113;81;20989;-91
2021/10/07 07:02:01;;;;;;;30.55;20.72;;;;;;;13.14;96.30;101036.43;1754031;81;21017;-92
2021/10/07 07:04:27;;;;;;;30.90;22.35;;;;;;;13.17;96.30;101035.37;1754099;82;20993;-92
2021/10/07 07:06:54;;;;;;;29.18;22.07;;;;;;;13.18;96.15;101030.91;1753829;82;21020;-93
2021/10/07 07:09:20;;;;;;;33.42;22.73;;;;;;;13.20;96.33;101038.28;1754061;82;21024;-91
2021/10/07 07:11:46;;;;;;;30.88;22.73;;;;;;;13.21;96.25;101041.29;1753722;81;21093;-93
2021/10/07 07:14:12;;;;;;;32.03;23.15;;;;;;;13.22;96.31;101044.30;1754076;81;21499;-91
2021/10/07 07:16:39;;;;;;;35.05;22.98;;;;;;;13.23;96.37;101046.86;1753928;82;21463;-93
2021/10/07 07:19:05;;;;;;;40.30;25.97;;;;;;;13.26;96.48;101048.45;1753963;82;20970;-90
2021/10/07 07:21:33;;;;;;;35.35;25.17;;;;;;;13.27;96.29;101046.19;1754036;81;20997;-91
2021/10/07 07:24:00;;;;;;;32.90;23.42;;;;;;;13.27;96.34;101046.19;1753610;81;21877;-93
2021/10/07 07:26:28;;;;;;;37.90;26.02;;;;;;;13.28;96.41;101055.81;1754125;81;21016;-92
2021/10/07 07:28:54;;;;;;;34.00;24.65;;;;;;;13.29;96.40;101052.20;1753833;82;21037;-92
2021/10/07 07:31:23;;;;;;;33.80;25.08;;;;;;;13.30;96.52;101053.43;1754086;81;21486;-94
2021/10/07 07:33:49;;;;;;;33.73;24.87;;;;;;;13.31;96.48;101061.74;1753889;82;21080;-91
2021/10/07 07:36:19;;;;;;;38.30;27.32;;;;;;;13.34;96.41;101061.52;1753927;81;21496;-90
2021/10/07 07:38:46;;;;;;;39.85;26.20;;;;;;;13.37;96.68;101065.77;1754091;81;21463;-91
2021/10/07 07:41:13;;;;;;;34.38;25.92;;;;;;;13.41;96.69;101066.38;1754149;81;20990;-90
2021/10/07 07:43:40;;;;;;;37.70;27.48;;;;;;;13.42;96.49;101070.23;1753701;82;21008;-91
2021/10/07 07:46:07;;;;;;;38.00;27.07;;;;;;;13.43;96.22;101073.75;1754055;82;21073;-91
2021/10/07 07:48:34;;;;;;;39.58;26.10;;;;;;;13.42;96.30;101074.20;1753958;82;21495;-92
2021/10/07 07:51:01;;;;;;;35.65;27.13;;;;;;;13.44;96.25;101080.26;1753895;82;20993;-91
2021/10/07 07:53:27;;;;;;;38.55;25.27;;;;;;;13.46;96.36;101074.83;1754100;81;21030;-92
2021/10/07 07:55:53;;;;;;;34.67;24.65;;;;;;;13.47;96.24;101075.22;1754050;82;21582;-90
2021/10/07 07:58:20;;;;;;;34.85;26.05;;;;;;;13.49;96.21;101079.91;1754194;82;21022;-93
2021/10/07 08:00:47;;;;;;;35.58;25.97;;;;;;;13.49;96.06;101075.48;1754126;82;21060;-93
2021/10/07 08:03:13;;;;;;;35.92;28.23;;;;;;;13.50;96.12;101077.16;1754077;81;21044;-92
2021/10/07 08:05:39;;;;;;;37.70;28.27;;;;;;;13.52;96.18;101079.69;1754093;82;21005;-93
2021/10/07 08:08:06;;;;;;;36.42;27.32;;;;;;;13.55;96.39;101079.47;1754059;81;21013;-91
2021/10/07 08:10:32;;;;;;;38.70;26.55;;;;;;;13.57;96.33;101078.89;1754083;82;21292;-91
2021/10/07 08:13:00;;;;;;;33.92;25.43;;;;;;;13.59;96.30;101088.43;1754017;80;20965;-92
2021/10/07 08:15:26;;;;;;;38.35;27.17;;;;;;;13.63;96.21;101084.23;1754047;82;21037;-91
2021/10/07 08:17:53;;;;;;;37.60;28.35;;;;;;;13.66;96.54;101084.01;1754105;82;20957;-92
2021/10/07 08:20:20;;;;;;;43.45;27.75;;;;;;;13.69;96.50;101088.60;1726610;82;21064;-91
2021/10/07 08:22:48;;;;;;;36.73;27.45;;;;;;;13.74;96.45;101086.92;1753878;82;21060;-91
2021/10/07 08:25:17;;;;;;;40.38;28.35;;;;;;;13.77;96.45;101088.87;1754011;82;21495;-90
2021/10/07 08:27:44;;;;;;;37.30;28.57;;;;;;;13.82;96.52;101092.05;1753982;82;21445;-91
2021/10/07 08:30:14;;;;;;;39.08;26.45;;;;;;;13.88;96.56;101101.33;1754028;82;20988;-90
2021/10/07 08:32:40;;;;;;;39.13;27.00;;;;;;;13.91;96.24;101102.91;1753842;82;21555;-92
2021/10/07 08:35:09;;;;;;;39.60;29.37;;;;;;;13.93;95.86;101100.52;1754266;82;21021;-91
2021/10/07 08:37:36;;;;;;;39.85;28.83;;;;;;;13.94;95.61;101095.58;1753889;81;21044;-91
2021/10/07 08:40:07;;;;;;;42.00;28.23;;;;;;;13.97;95.59;101100.66;1754097;81;21467;-92
2021/10/07 08:42:33;;;;;;;38.48;28.17;;;;;;;14.00;95.68;101103.56;1753843;82;21017;-91
2021/10/07 08:45:01;;;;;;;39.27;28.85;;;;;;;14.01;95.46;101098.13;1754184;81;21494;-92
2021/10/07 08:47:29;;;;;;;42.10;30.48;;;;;;;14.03;95.37;101106.83;1754018;82;21045;-93
2021/10/07 08:49:55;;;;;;;39.78;28.45;;;;;;;14.07;95.69;101101.66;1754156;81;21002;-92
2021/10/07 08:52:21;;;;;;;37.38;28.60;;;;;;;14.10;95.46;101099.74;1726669;82;21024;-92
2021/10/07 08:54:47;;;;;;;37.90;26.97;;;;;;;14.14;95.33;101098.55;1754209;82;21543;-92
2021/10/07 08:57:14;;;;;;;39.48;27.17;;;;;;;14.15;95.26;101097.12;1754032;82;21017;-93
2021/10/07 08:59:40;;;;;;;35.30;25.95;;;;;;;14.15;94.97;101103.75;1753903;82;21040;-93
2021/10/07 09:02:09;;;;;;;38.30;28.92;;;;;;;14.16;95.15;101105.92;1754024;81;20989;-91
2021/10/07 09:04:38;;;;;;;41.50;28.70;;;;;;;14.18;95.04;101102.20;1754082;82;21036;-92
2021/10/07 09:07:10;;;;;;;37.75;27.95;;;;;;;14.19;94.85;101101.71;1753946;82;21056;-90
2021/10/07 09:09:40;;;;;;;44.10;27.62;;;;;;;14.24;95.29;101108.83;1754225;82;21048;-91
2021/10/07 09:12:12;;;;;;;38.85;28.38;;;;;;;14.27;94.99;101108.59;1754048;82;21006;-91
2021/10/07 09:14:42;;;;;;;42.55;30.88;;;;;;;14.29;95.30;101107.53;1754573;82;21009;-92
2021/10/07 09:17:11;;;;;;;40.25;28.10;;;;;;;14.35;95.28;101105.38;1753923;82;21053;-92
2021/10/07 09:19:40;;;;;;;41.83;29.85;;;;;;;14.39;94.89;101117.45;1754073;81;21480;-93
2021/10/07 09:22:28;;;;;;;41.00;30.50;;;;;;;14.42;94.57;101114.57;1753892;81;21020;-92
2021/10/07 09:25:00;;;;;;;44.77;31.30;;;;;;;14.41;94.32;101116.38;1754370;81;21042;-94
2021/10/07 09:27:30;;;;;;;40.08;30.62;;;;;;;14.41;94.27;101124.34;1754008;82;21033;-93
2021/10/07 09:30:07;;;;;;;44.18;32.42;;;;;;;14.40;94.31;101119.98;1754152;82;21056;-91
2021/10/07 09:32:40;;;;;;;43.33;31.17;;;;;;;14.40;94.03;101125.29;1753910;82;21562;-92
2021/10/07 09:35:09;;;;;;;42.58;30.68;;;;;;;14.39;93.85;101124.94;1754103;82;21029;-91
2021/10/07 09:37:44;;;;;;;43.40;31.77;;;;;;;14.38;93.78;101123.25;1753932;82;21028;-94
2021/10/07 09:40:21;;;;;;;42.83;29.40;;;;;;;14.38;93.68;101121.05;1754166;81;21051;-93
2021/10/07 09:42:54;;;;;;;39.70;29.15;;;;;;;14.37;93.68;101130.83;1753980;81;21522;-92
2021/10/07 09:45:33;;;;;;;41.23;30.62;;;;;;;14.39;93.75;101130.73;1754196;82;20977;-93
2021/10/07 09:48:06;;;;;;;43.45;30.88;;;;;;;14.38;93.65;101128.56;1754002;81;21530;-93
2021/10/07 09:50:37;;;;;;;39.03;30.20;;;;;;;14.38;93.30;101129.02;1754241;82;20977;-93
2021/10/07 09:53:16;;;;;;;44.95;32.03;;;;;;;14.37;93.35;101137.47;1754097;82;21024;-93
2021/10/07 09:55:48;;;;;;;40.75;29.35;;;;;;;14.35;93.29;101139.41;1753011;82;21053;-91
2021/10/07 09:58:23;;;;;;;41.33;30.70;;;;;;;14.34;93.13;101145.66;1754108;81;21009;-92
2021/10/07 10:00:54;;;;;;;47.60;31.23;;;;;;;14.33;93.09;101136.02;1754116;81;21048;-91
2021/10/07 10:03:22;;;;;;;39.50;29.60;;;;;;;14.30;92.95;101143.72;1763685;80;20962;-91
2021/10/07 10:05:50;;;;;;;37.20;29.32;;;;;;;14.29;92.65;101145.17;1748399;80;21012;-91
2021/10/07 10:08:18;;;;;;;38.88;30.02;;;;;;;14.26;92.73;101144.92;1772538;80;21428;-89
2021/10/07 10:10:47;;;;;;;44.93;30.55;;;;;;;14.25;92.74;101156.51;1757521;80;21009;-92
2021/10/07 10:13:15;;;;;;;41.95;31.10;;;;;;;14.22;92.52;101162.53;1781612;80;20977;-92
2021/10/07 10:15:42;;;;;;;42.95;31.73;;;;;;;14.20;92.70;101158.65;1772161;80;21008;-92
2021/10/07 10:18:12;;;;;;;43.08;32.23;;;;;;;14.20;92.67;101157.81;1732035;80;21262;-93
2021/10/07 10:20:42;;;;;;;40.43;31.55;;;;;;;14.20;92.84;101155.16;1762229;80;21304;-93
2021/10/07 10:23:24;;;;;;;40.05;30.97;;;;;;;14.21;92.91;101158.16;1757792;80;20986;-93
2021/10/07 10:26:10;;;;;;;43.98;32.60;;;;;;;14.21;92.96;101154.18;1766839;80;21539;-93
2021/10/07 10:28:50;;;;;;;46.00;34.45;;;;;;;14.23;92.95;101150.94;1754348;80;20971;-92
2021/10/07 10:31:20;;;;;;;40.05;30.62;;;;;;;14.24;92.77;101149.97;1765302;81;21046;-91
2021/10/07 10:33:49;;;;;;;39.88;31.25;;;;;;;14.26;93.04;101150.23;1757173;81;21314;-91
2021/10/07 10:36:31;;;;;;;43.63;32.50;;;;;;;14.27;92.78;101146.61;1762416;80;21055;-91
2021/10/07 10:39:14;;;;;;;43.60;32.33;;;;;;;14.29;92.89;101147.34;1785195;80;21048;-91
2021/10/07 10:41:55;;;;;;;37.38;28.75;;;;;;;14.34;92.95;101146.15;1784947;80;21018;-91
2021/10/07 10:44:37;;;;;;;37.20;29.45;;;;;;;14.36;92.73;101142.91;1785227;80;20970;-91
2021/10/07 10:47:12;;;;;;;40.33;29.87;;;;;;;14.38;92.30;101149.80;1777176;80;21522;-89
2021/10/07 10:49:52;;;;;;;39.15;29.35;;;;;;;14.40;92.34;101149.19;1785186;80;21004;-91
2021/10/07 10:52:41;;;;;;;42.45;29.57;;;;;;;14.42;92.27;101151.26;1784825;80;21060;-90
2021/10/07 10:55:21;;;;;;;35.35;27.70;;;;;;;14.46;92.38;101152.70;1785276;80;21010;-92
2021/10/07 10:58:00;;;;;;;53.38;28.40;;;;;;;14.51;92.74;101151.92;1784090;80;21045;-91
2021/10/07 11:00:39;;;;;;;37.83;28.35;;;;;;;14.54;92.69;101154.80;1785228;80;21024;-91
2021/10/07 11:03:26;;;;;;;33.90;28.42;;;;;;;14.60;92.21;101152.17;1784895;80;21037;-90
2021/10/07 11:06:06;;;;;;;34.60;26.93;;;;;;;14.62;92.50;101151.58;1785155;80;21045;-92
2021/10/07 11:08:45;;;;;;;32.63;26.57;;;;;;;14.68;92.61;101155.95;1785473;80;21001;-91
2021/10/07 11:11:29;;;;;;;34.53;27.73;;;;;;;14.70;91.78;101154.48;1783564;80;21010;-91
2021/10/07 11:13:55;;;;;;;34.85;27.65;;;;;;;14.72;91.73;101149.91;1784963;80;21033;-93
2021/10/07 11:16:22;;;;;;;35.28;26.70;;;;;;;14.77;91.88;101158.36;1758905;80;21005;-92
2021/10/07 11:18:50;;;;;;;33.88;25.37;;;;;;;14.83;91.90;101158.38;1785065;80;20958;-90
2021/10/07 11:21:22;;;;;;;37.13;26.42;;;;;;;14.85;91.46;101159.95;1785119;80;21016;-89
2021/10/07 11:23:55;;;;;;;31.93;27.45;;;;;;;14.88;91.19;101160.20;1785224;80;21065;-92